Time;durP1;ratioP1;P1;durP2;ratioP2;P2;SDS_P1;SDS_P2;PMS_P1;PMS_P2;Temp;Humidity;BMP_temperature;BMP_pressure;BME280_temperature;BME280_humidity;BME280_pressure;Samples;Min_cycle;Max_cycle;Signal;HPM_P1;HPM_P2
2022/06/29 00:00:20;;;;;;;7.20;2.88;;;18.10;99.90;;;;;;5051282;28;20029;-57
2022/06/29 00:02:46;;;;;;;4.78;2.83;;;17.90;99.90;;;;;;5051050;28;20028;-57
2022/06/29 00:05:14;;;;;;;3.42;2.70;;;17.80;99.90;;;;;;5051571;28;20458;-58
2022/06/29 00:07:40;;;;;;;5.40;2.70;;;17.80;99.90;;;;;;5051256;28;20029;-58
2022/06/29 00:10:07;;;;;;;3.47;2.72;;;17.80;99.90;;;;;;5051077;28;20025;-58
2022/06/29 00:12:32;;;;;;;4.40;2.53;;;17.90;99.90;;;;;;5049770;28;20418;-57
2022/06/29 00:15:02;;;;;;;6.78;2.50;;;18.10;99.90;;;;;;5050687;28;20123;-57
2022/06/29 00:17:28;;;;;;;6.78;2.80;;;18.00;99.90;;;;;;5051209;28;20039;-57
2022/06/29 00:19:54;;;;;;;4.07;2.33;;;17.90;99.90;;;;;;5051006;28;20111;-57
2022/06/29 00:22:20;;;;;;;10.18;2.92;;;17.80;99.90;;;;;;5051036;28;20132;-58
2022/06/29 00:24:45;;;;;;;8.80;3.40;;;17.80;99.90;;;;;;5051389;28;20031;-57
2022/06/29 00:27:11;;;;;;;5.35;3.50;;;17.80;99.90;;;;;;5051105;28;20099;-56
2022/06/29 00:29:37;;;;;;;6.88;3.33;;;17.80;99.90;;;;;;5050820;28;20028;-57
2022/06/29 00:32:03;;;;;;;4.20;2.85;;;17.90;99.90;;;;;;5050952;28;20520;-56
2022/06/29 00:34:30;;;;;;;3.80;2.80;;;17.90;99.90;;;;;;5050859;28;20041;-57
2022/06/29 00:36:55;;;;;;;6.72;3.72;;;17.80;99.90;;;;;;5051142;28;20075;-57
2022/06/29 00:39:21;;;;;;;5.45;3.60;;;17.70;99.90;;;;;;5050769;28;20037;-56
2022/06/29 00:41:47;;;;;;;8.73;3.78;;;17.60;99.90;;;;;;5050818;28;20059;-56
2022/06/29 00:44:18;;;;;;;8.00;3.47;;;17.60;99.90;;;;;;5050338;28;20180;-56
2022/06/29 00:46:48;;;;;;;6.05;3.65;;;17.70;99.90;;;;;;5050256;28;20082;-56
2022/06/29 00:49:16;;;;;;;5.05;3.38;;;17.60;99.90;;;;;;5050567;28;20029;-56
2022/06/29 00:51:46;;;;;;;6.22;3.47;;;17.40;99.90;;;;;;5050341;28;20432;-57
2022/06/29 00:54:22;;;;;;;7.07;3.47;;;17.20;99.90;;;;;;5050426;28;20437;-57
2022/06/29 00:56:49;;;;;;;7.40;3.60;;;17.20;99.90;;;;;;5050915;28;20440;-56
2022/06/29 00:59:19;;;;;;;5.70;3.72;;;17.00;99.90;;;;;;5050425;28;20036;-56
2022/06/29 01:01:45;;;;;;;3.28;2.95;;;17.00;99.90;;;;;;5050428;28;20024;-57
2022/06/29 01:04:10;;;;;;;7.03;3.70;;;16.90;99.90;;;;;;5050988;28;20354;-56
2022/06/29 01:06:36;;;;;;;6.07;3.58;;;16.90;99.90;;;;;;5050898;28;20506;-57
2022/06/29 01:09:04;;;;;;;6.10;3.45;;;17.00;99.90;;;;;;5050759;28;20386;-57
2022/06/29 01:11:31;;;;;;;5.15;2.97;;;16.80;99.90;;;;;;5050621;28;20584;-57
2022/06/29 01:13:57;;;;;;;7.63;3.55;;;16.90;99.90;;;;;;5049052;28;20021;-57
2022/06/29 01:16:22;;;;;;;7.03;3.70;;;16.70;99.90;;;;;;5050610;28;20387;-57
2022/06/29 01:18:48;;;;;;;6.85;3.85;;;16.60;99.90;;;;;;5050393;28;20478;-57
2022/06/29 01:21:14;;;;;;;8.93;3.75;;;16.60;99.90;;;;;;5050701;28;20032;-56
2022/06/29 01:23:40;;;;;;;8.57;4.47;;;16.60;99.90;;;;;;5050601;28;20113;-57
2022/06/29 01:26:08;;;;;;;5.93;3.83;;;16.60;99.90;;;;;;5051057;28;20111;-57
2022/06/29 01:28:34;;;;;;;8.00;3.92;;;16.40;99.90;;;;;;5053457;28;20465;-57
2022/06/29 01:31:00;;;;;;;4.93;3.90;;;16.40;99.90;;;;;;5054109;28;20404;-57
2022/06/29 01:33:26;;;;;;;5.05;4.07;;;16.40;99.90;;;;;;5053789;28;20112;-57
2022/06/29 01:35:52;;;;;;;5.45;3.97;;;16.30;99.90;;;;;;5053992;28;20064;-57
2022/06/29 01:38:19;;;;;;;5.20;4.18;;;16.30;99.90;;;;;;5053827;28;20060;-57
2022/06/29 01:40:45;;;;;;;8.07;4.20;;;16.40;99.90;;;;;;5052404;28;20028;-57
2022/06/29 01:43:11;;;;;;;5.13;4.63;;;16.30;99.90;;;;;;5054004;28;20382;-57
2022/06/29 01:45:36;;;;;;;10.65;4.95;;;16.20;99.90;;;;;;5053886;28;20047;-57
2022/06/29 01:48:02;;;;;;;9.07;4.75;;;16.20;99.90;;;;;;5053902;28;20029;-58
2022/06/29 01:50:28;;;;;;;8.10;4.88;;;16.10;99.90;;;;;;5053483;28;20021;-58
2022/06/29 01:52:53;;;;;;;7.05;4.50;;;16.00;99.90;;;;;;5053670;28;20044;-57
2022/06/29 01:55:19;;;;;;;6.22;4.55;;;16.00;99.90;;;;;;5053594;28;20132;-57
2022/06/29 01:58:00;;;;;;;6.03;4.80;;;16.00;99.90;;;;;;5052535;28;20025;-57
2022/06/29 02:00:26;;;;;;;17.05;5.93;;;16.00;99.90;;;;;;5053232;28;20107;-58
2022/06/29 02:02:51;;;;;;;12.02;5.75;;;16.10;99.90;;;;;;5053066;28;20112;-57
2022/06/29 02:05:17;;;;;;;10.23;6.35;;;16.20;99.90;;;;;;5052144;28;20029;-57
2022/06/29 02:07:43;;;;;;;7.68;5.45;;;16.10;99.90;;;;;;5053322;28;20500;-57
2022/06/29 02:10:08;;;;;;;9.65;5.78;;;16.00;99.90;;;;;;5052969;28;20025;-57
2022/06/29 02:12:34;;;;;;;11.18;6.72;;;16.00;99.90;;;;;;5053043;28;20503;-57
2022/06/29 02:15:00;;;;;;;13.25;6.63;;;15.90;99.90;;;;;;5053307;28;20036;-57
2022/06/29 02:17:25;;;;;;;12.35;6.38;;;15.80;99.90;;;;;;5051699;28;20029;-57
2022/06/29 02:19:51;;;;;;;11.13;6.57;;;15.80;99.90;;;;;;5053312;28;20037;-58
2022/06/29 02:22:16;;;;;;;10.05;7.53;;;15.60;99.90;;;;;;5052783;28;20500;-56
2022/06/29 02:24:42;;;;;;;13.77;8.07;;;15.60;99.90;;;;;;5053306;28;20021;-58
2022/06/29 02:27:08;;;;;;;12.52;8.35;;;15.60;99.90;;;;;;5053302;28;20052;-56
2022/06/29 02:29:33;;;;;;;13.45;9.82;;;15.60;99.90;;;;;;5052584;28;20462;-56
2022/06/29 02:34:43;;;;;;;12.75;9.40;;;15.50;99.90;;;;;;5052852;28;20029;-57
2022/06/29 02:37:16;;;;;;;15.90;9.20;;;15.50;99.90;;;;;;5052857;28;20436;-56
2022/06/29 02:39:42;;;;;;;11.68;8.90;;;15.50;99.90;;;;;;5051073;28;20037;-57
2022/06/29 02:42:10;;;;;;;11.98;7.75;;;15.40;99.90;;;;;;5052374;28;20033;-57
2022/06/29 02:44:35;;;;;;;13.57;8.10;;;15.40;99.90;;;;;;5052586;28;20024;-57
2022/06/29 02:47:01;;;;;;;13.05;9.10;;;15.40;99.90;;;;;;5052250;28;20025;-57
2022/06/29 02:49:27;;;;;;;12.23;7.47;;;15.40;99.90;;;;;;5052276;28;20021;-57
2022/06/29 02:51:53;;;;;;;11.23;8.30;;;15.30;99.90;;;;;;5052512;28;20033;-57
2022/06/29 02:54:18;;;;;;;14.15;8.70;;;15.30;99.90;;;;;;5052099;28;20075;-57
2022/06/29 02:56:44;;;;;;;11.45;8.20;;;15.30;99.90;;;;;;5052428;28;20103;-57
2022/06/29 02:59:09;;;;;;;9.70;6.90;;;15.40;99.90;;;;;;5052247;28;20025;-57
2022/06/29 03:01:35;;;;;;;12.18;8.45;;;15.30;99.90;;;;;;5052257;28;20456;-58
2022/06/29 03:04:01;;;;;;;15.45;9.50;;;15.30;99.90;;;;;;5052005;28;20394;-57
2022/06/29 03:06:26;;;;;;;14.82;9.10;;;15.30;99.90;;;;;;5052197;28;20514;-57
2022/06/29 03:08:52;;;;;;;13.77;8.43;;;15.20;99.90;;;;;;5051830;28;20017;-57
2022/06/29 03:11:17;;;;;;;14.73;8.75;;;15.00;99.90;;;;;;5051837;28;20042;-57
2022/06/29 03:13:43;;;;;;;11.15;8.10;;;15.00;99.90;;;;;;5051796;28;20075;-57
2022/06/29 03:16:09;;;;;;;13.02;8.50;;;15.00;99.90;;;;;;5051897;28;20082;-58
2022/06/29 03:18:34;;;;;;;12.27;8.77;;;14.90;99.90;;;;;;5051754;28;20035;-57
2022/06/29 03:21:00;;;;;;;13.65;7.65;;;15.00;99.90;;;;;;5051886;28;20021;-57
2022/06/29 03:23:26;;;;;;;13.30;6.90;;;15.10;99.90;;;;;;5051645;28;20025;-56
2022/06/29 03:25:51;;;;;;;7.95;5.65;;;15.10;99.90;;;;;;5051646;28;20050;-57
2022/06/29 03:28:17;;;;;;;11.68;6.47;;;15.10;99.90;;;;;;5051869;28;20056;-57
2022/06/29 03:30:42;;;;;;;7.85;5.47;;;15.00;99.90;;;;;;5051619;28;20070;-56
2022/06/29 03:33:08;;;;;;;10.45;6.22;;;14.90;99.90;;;;;;5051818;28;20033;-57
2022/06/29 03:35:34;;;;;;;9.82;5.57;;;14.70;99.90;;;;;;5050657;28;20029;-58
2022/06/29 03:38:00;;;;;;;13.07;5.82;;;14.70;99.90;;;;;;5052231;28;20497;-57
2022/06/29 03:40:25;;;;;;;10.80;6.20;;;14.60;99.90;;;;;;5051509;28;20055;-57
2022/06/29 03:42:52;;;;;;;13.57;6.78;;;14.70;99.90;;;;;;5052104;28;20544;-57
2022/06/29 03:45:19;;;;;;;8.88;6.93;;;14.80;99.90;;;;;;5033987;28;20055;-57
2022/06/29 03:47:45;;;;;;;13.52;6.97;;;15.00;99.90;;;;;;5051431;28;20037;-57
2022/06/29 03:50:11;;;;;;;12.93;7.45;;;14.90;99.90;;;;;;5050747;28;20512;-57
2022/06/29 03:52:36;;;;;;;11.30;6.32;;;14.90;99.90;;;;;;5051358;28;20060;-57
2022/06/29 03:55:03;;;;;;;9.35;7.10;;;14.80;99.90;;;;;;5051381;28;20040;-57
2022/06/29 03:57:28;;;;;;;8.90;6.65;;;14.60;99.90;;;;;;5051077;28;20078;-57
2022/06/29 03:59:54;;;;;;;13.95;6.82;;;14.60;99.90;;;;;;5051545;28;20025;-58
2022/06/29 04:02:19;;;;;;;10.88;7.40;;;14.60;99.90;;;;;;5051084;28;20389;-57
2022/06/29 04:04:45;;;;;;;11.27;6.53;;;14.60;99.90;;;;;;5051341;28;20025;-57
2022/06/29 04:07:10;;;;;;;9.75;6.35;;;14.60;99.90;;;;;;5049839;28;20385;-57
2022/06/29 04:09:36;;;;;;;8.88;6.82;;;14.70;99.90;;;;;;5051016;28;20035;-57
2022/06/29 04:12:02;;;;;;;9.35;6.82;;;14.90;99.90;;;;;;5051262;28;20029;-56
2022/06/29 04:14:28;;;;;;;8.85;6.80;;;15.00;99.90;;;;;;5050976;28;20036;-56
2022/06/29 04:16:56;;;;;;;7.32;5.78;;;14.90;99.90;;;;;;5051142;28;20025;-57
2022/06/29 04:19:22;;;;;;;9.90;6.47;;;14.90;99.90;;;;;;5051335;28;20223;-56
2022/06/29 04:21:48;;;;;;;9.38;6.22;;;14.90;99.90;;;;;;5051068;28;20052;-58
2022/06/29 04:24:15;;;;;;;12.07;8.50;;;14.90;99.90;;;;;;5050931;28;20021;-56
2022/06/29 04:26:40;;;;;;;16.77;9.30;;;15.10;99.90;;;;;;5051358;28;20021;-57
2022/06/29 04:29:06;;;;;;;11.05;8.25;;;15.20;99.90;;;;;;5051053;28;20087;-59
2022/06/29 04:31:32;;;;;;;12.15;7.15;;;15.10;99.90;;;;;;5050913;28;20104;-57
2022/06/29 04:33:59;;;;;;;10.93;8.38;;;15.10;99.90;;;;;;5051063;28;20067;-57
2022/06/29 04:36:24;;;;;;;16.90;8.93;;;15.00;99.90;;;;;;5050995;28;20021;-58
2022/06/29 04:38:50;;;;;;;17.67;10.45;;;15.00;99.90;;;;;;5050848;28;20021;-56
2022/06/29 04:41:16;;;;;;;13.65;10.55;;;15.10;99.90;;;;;;5050602;28;20029;-57
2022/06/29 04:43:41;;;;;;;13.65;10.30;;;15.20;99.90;;;;;;5050687;28;20116;-56
2022/06/29 04:46:19;;;;;;;15.00;10.13;;;15.40;99.90;;;;;;5050978;28;20490;-57
2022/06/29 04:48:46;;;;;;;10.93;9.80;;;15.40;99.90;;;;;;5050910;28;20479;-57
2022/06/29 04:51:12;;;;;;;12.80;10.63;;;15.40;99.90;;;;;;5051235;28;20452;-57
2022/06/29 04:53:38;;;;;;;17.45;13.00;;;15.40;99.90;;;;;;5050956;28;20025;-57
2022/06/29 04:56:04;;;;;;;16.95;13.73;;;15.40;99.90;;;;;;5051069;28;20056;-57
2022/06/29 04:58:30;;;;;;;18.98;14.95;;;15.30;99.90;;;;;;5050451;28;20029;-57
2022/06/29 05:00:55;;;;;;;24.63;14.45;;;15.30;99.90;;;;;;5051111;28;20608;-56
2022/06/29 05:03:21;;;;;;;18.35;14.80;;;15.50;99.90;;;;;;5054284;28;20159;-58
2022/06/29 05:05:49;;;;;;;21.17;15.07;;;15.50;99.90;;;;;;5054688;28;20103;-57
2022/06/29 05:08:15;;;;;;;23.15;16.40;;;15.60;99.90;;;;;;5054308;28;20021;-58
2022/06/29 05:10:44;;;;;;;28.23;16.30;;;15.60;99.90;;;;;;5054430;28;20381;-56
2022/06/29 05:13:10;;;;;;;19.33;15.80;;;15.70;99.90;;;;;;5054579;28;20033;-57
2022/06/29 05:15:37;;;;;;;21.90;15.85;;;15.70;99.90;;;;;;5054910;28;20051;-57
2022/06/29 05:18:02;;;;;;;23.63;17.63;;;15.70;99.90;;;;;;5054007;28;20025;-56
2022/06/29 05:20:28;;;;;;;21.73;16.75;;;15.70;99.90;;;;;;5054192;28;20045;-57
2022/06/29 05:22:54;;;;;;;24.40;17.67;;;15.70;99.90;;;;;;5054267;28;20060;-57
2022/06/29 05:25:20;;;;;;;21.20;16.35;;;15.80;99.90;;;;;;5054565;28;20032;-57
2022/06/29 05:27:46;;;;;;;19.77;16.83;;;15.90;99.90;;;;;;5053858;28;20025;-58
2022/06/29 05:30:12;;;;;;;21.23;15.65;;;15.90;99.90;;;;;;5053728;28;20032;-57
2022/06/29 05:32:38;;;;;;;18.20;15.25;;;16.00;99.90;;;;;;5053854;28;20025;-55
2022/06/29 05:35:04;;;;;;;16.30;13.55;;;16.10;99.90;;;;;;5054074;28;20036;-55
2022/06/29 05:37:31;;;;;;;15.43;12.57;;;16.20;99.90;;;;;;5053513;28;20424;-56
2022/06/29 05:39:56;;;;;;;13.95;12.40;;;16.30;99.90;;;;;;5053645;28;20029;-57
2022/06/29 05:42:22;;;;;;;12.75;10.55;;;16.30;99.90;;;;;;5053326;28;20040;-57
2022/06/29 05:44:48;;;;;;;14.45;10.40;;;16.50;99.90;;;;;;5053810;28;20033;-58
2022/06/29 05:47:14;;;;;;;10.60;7.70;;;16.60;99.90;;;;;;5057687;28;20036;-57
2022/06/29 05:49:40;;;;;;;12.43;7.78;;;16.70;99.90;;;;;;5056843;28;20524;-55
2022/06/29 05:52:07;;;;;;;9.68;7.15;;;16.80;99.90;;;;;;5061394;28;20083;-55
2022/06/29 05:54:32;;;;;;;13.38;7.65;;;16.90;99.90;;;;;;5056431;28;20046;-55
2022/06/29 05:56:58;;;;;;;11.73;7.00;;;17.00;99.90;;;;;;5058189;28;20386;-56
2022/06/29 05:59:24;;;;;;;9.38;5.72;;;17.10;99.90;;;;;;5055767;28;20079;-56
2022/06/29 06:01:49;;;;;;;10.20;5.75;;;17.10;99.90;;;;;;5055082;28;20711;-55
2022/06/29 06:04:15;;;;;;;8.05;5.05;;;17.20;99.90;;;;;;5057405;28;20027;-55
2022/06/29 06:06:41;;;;;;;8.35;5.30;;;17.30;99.90;;;;;;5054224;28;20064;-56
2022/06/29 06:09:06;;;;;;;7.95;5.30;;;17.40;99.90;;;;;;5056332;28;20037;-55
2022/06/29 06:11:32;;;;;;;10.65;4.85;;;17.40;99.90;;;;;;5055287;28;20021;-55
2022/06/29 06:13:57;;;;;;;6.72;4.70;;;17.40;99.90;;;;;;5055259;28;20025;-55
2022/06/29 06:16:23;;;;;;;7.53;5.20;;;17.50;99.90;;;;;;5054079;28;20040;-57
2022/06/29 06:18:49;;;;;;;8.57;5.15;;;17.50;99.90;;;;;;5057305;28;20448;-56
2022/06/29 06:21:15;;;;;;;8.02;5.00;;;17.70;99.90;;;;;;5052015;28;20024;-58
2022/06/29 06:23:40;;;;;;;8.38;5.20;;;17.80;99.90;;;;;;5051717;28;20127;-58
2022/06/29 06:26:06;;;;;;;8.55;5.00;;;17.90;99.90;;;;;;5046785;28;20036;-56
2022/06/29 06:28:32;;;;;;;7.90;4.88;;;18.00;99.90;;;;;;5056456;28;20025;-57
2022/06/29 06:30:57;;;;;;;6.88;5.45;;;18.10;99.90;;;;;;5057922;28;20035;-57
2022/06/29 06:33:23;;;;;;;7.93;5.20;;;18.20;99.90;;;;;;5052911;28;20029;-56
2022/06/29 06:35:49;;;;;;;8.57;5.30;;;18.40;99.90;;;;;;5056549;28;20116;-57
2022/06/29 06:38:15;;;;;;;8.57;5.28;;;18.60;99.90;;;;;;5058811;28;20389;-57
2022/06/29 06:43:26;;;;;;;8.07;4.00;;;19.20;99.90;;;;;;5053881;28;20103;-57
2022/06/29 06:45:51;;;;;;;6.07;4.00;;;20.50;99.90;;;;;;5048993;28;20025;-57
2022/06/29 06:48:17;;;;;;;7.63;3.80;;;21.80;99.90;;;;;;5046990;28;20021;-57
2022/06/29 06:50:43;;;;;;;90.38;11.80;;;22.50;99.90;;;;;;5045778;28;20044;-58
2022/06/29 06:53:09;;;;;;;10.32;3.75;;;23.20;99.90;;;;;;5048063;28;20036;-58
2022/06/29 06:55:35;;;;;;;6.43;4.30;;;23.60;99.90;;;;;;5050768;28;20071;-57
2022/06/29 06:58:01;;;;;;;7.53;4.30;;;22.90;99.90;;;;;;5055207;28;20020;-57
2022/06/29 07:00:28;;;;;;;14.15;4.07;;;22.60;99.90;;;;;;5049137;28;20025;-57
2022/06/29 07:02:54;;;;;;;9.15;3.92;;;22.80;99.90;;;;;;5047410;28;20024;-57
2022/06/29 07:05:20;;;;;;;10.25;4.30;;;23.30;99.90;;;;;;5049435;28;20551;-58
2022/06/29 07:07:46;;;;;;;7.53;4.25;;;24.20;99.90;;;;;;5054482;28;20935;-58
2022/06/29 07:10:12;;;;;;;9.32;3.95;;;24.90;99.90;;;;;;5049867;28;20667;-58
2022/06/29 07:12:38;;;;;;;9.68;3.65;;;25.50;99.90;;;;;;5045821;28;20028;-59
2022/06/29 07:15:05;;;;;;;8.45;3.70;;;26.30;99.90;;;;;;5047159;28;20060;-59
2022/06/29 07:17:31;;;;;;;9.32;3.80;;;26.40;99.90;;;;;;5045454;28;20111;-58
2022/06/29 07:19:56;;;;;;;9.70;3.90;;;26.50;99.90;;;;;;5049440;28;20461;-58
2022/06/29 07:22:23;;;;;;;5.55;3.78;;;26.90;99.80;;;;;;5047804;28;20040;-59
2022/06/29 07:24:48;;;;;;;14.80;3.97;;;27.10;99.10;;;;;;5047711;28;20846;-59
2022/06/29 07:27:14;;;;;;;10.95;4.32;;;26.70;99.50;;;;;;5047142;28;20136;-59
2022/06/29 07:29:40;;;;;;;9.60;4.07;;;25.90;99.90;;;;;;5048564;28;20036;-59
2022/06/29 07:32:06;;;;;;;9.60;4.50;;;25.40;99.90;;;;;;5049238;28;20105;-59
2022/06/29 07:34:32;;;;;;;10.60;4.22;;;25.50;99.90;;;;;;5049686;28;20028;-58
2022/06/29 07:36:57;;;;;;;12.50;3.70;;;25.70;99.90;;;;;;5045985;28;20025;-58
2022/06/29 07:39:23;;;;;;;6.82;3.95;;;26.40;99.90;;;;;;5046731;28;20546;-59
2022/06/29 07:41:49;;;;;;;10.82;4.45;;;26.90;99.60;;;;;;5043916;28;20665;-58
2022/06/29 07:44:15;;;;;;;10.38;4.15;;;26.70;99.50;;;;;;5047398;28;20313;-58
2022/06/29 07:46:41;;;;;;;9.77;4.07;;;27.50;98.60;;;;;;5044081;28;20060;-58
2022/06/29 07:49:06;;;;;;;9.60;4.10;;;27.50;97.90;;;;;;5046545;28;20108;-58
2022/06/29 07:51:32;;;;;;;8.80;4.10;;;27.30;98.30;;;;;;5049528;28;20059;-58
2022/06/29 07:53:57;;;;;;;10.02;4.45;;;27.10;98.80;;;;;;5043028;28;20340;-58
2022/06/29 07:56:23;;;;;;;6.88;4.22;;;27.50;98.70;;;;;;5051182;28;20328;-57
2022/06/29 07:58:49;;;;;;;8.77;4.47;;;27.20;98.50;;;;;;5048754;28;20027;-58
2022/06/29 08:01:14;;;;;;;9.23;4.10;;;26.90;98.60;;;;;;5048887;28;20758;-58
2022/06/29 08:03:40;;;;;;;7.22;3.47;;;26.80;99.20;;;;;;5039690;28;20388;-58
2022/06/29 08:06:06;;;;;;;6.30;3.30;;;27.00;98.70;;;;;;5046357;28;20577;-58
2022/06/29 08:08:31;;;;;;;10.23;3.70;;;27.00;98.20;;;;;;5049039;28;20024;-59
2022/06/29 08:10:57;;;;;;;5.43;3.25;;;27.10;98.30;;;;;;5040833;28;20035;-58
2022/06/29 08:13:23;;;;;;;8.00;3.20;;;27.70;98.40;;;;;;5038663;28;20121;-58
2022/06/29 08:15:49;;;;;;;8.68;3.53;;;28.60;96.00;;;;;;5033934;28;20028;-57
2022/06/29 08:18:16;;;;;;;7.55;2.53;;;28.40;96.10;;;;;;5044944;28;20036;-58
2022/06/29 08:20:42;;;;;;;8.57;2.67;;;28.70;95.70;;;;;;5048969;28;20785;-59
2022/06/29 08:23:09;;;;;;;10.90;3.15;;;28.80;94.90;;;;;;5042871;28;20093;-59
2022/06/29 08:25:35;;;;;;;7.72;2.58;;;28.30;96.10;;;;;;5043905;28;20533;-58
2022/06/29 08:28:05;;;;;;;5.78;3.08;;;28.50;96.90;;;;;;5038947;28;20576;-60
2022/06/29 08:30:31;;;;;;;8.80;3.55;;;29.10;95.00;;;;;;5044575;28;20169;-59
2022/06/29 08:32:57;;;;;;;11.57;3.30;;;28.90;95.00;;;;;;5048457;28;20028;-59
2022/06/29 08:35:23;;;;;;;9.75;3.40;;;29.20;95.10;;;;;;5051609;28;20043;-59
2022/06/29 08:37:49;;;;;;;7.75;3.10;;;29.40;94.20;;;;;;5051914;28;20032;-59
2022/06/29 08:40:16;;;;;;;7.75;2.88;;;29.70;93.30;;;;;;5056030;28;20102;-58
2022/06/29 08:42:44;;;;;;;6.95;2.95;;;29.10;93.50;;;;;;5054198;28;20031;-59
2022/06/29 08:45:11;;;;;;;8.20;3.17;;;29.20;93.70;;;;;;5047681;28;20028;-59
2022/06/29 08:47:37;;;;;;;7.90;1.83;;;29.30;93.90;;;;;;5051051;28;20036;-59
2022/06/29 08:50:07;;;;;;;7.55;2.10;;;29.30;91.60;;;;;;5045778;28;20044;-59
2022/06/29 08:52:36;;;;;;;5.18;2.05;;;29.30;93.60;;;;;;5049591;28;20032;-59
2022/06/29 08:55:04;;;;;;;7.90;2.20;;;29.30;91.60;;;;;;5045841;28;20060;-58
2022/06/29 08:57:30;;;;;;;6.70;1.60;;;29.50;90.40;;;;;;5050671;28;20033;-58
2022/06/29 08:59:57;;;;;;;4.88;1.30;;;29.60;89.80;;;;;;5050069;28;20043;-58
2022/06/29 09:02:22;;;;;;;3.80;1.33;;;29.60;83.70;;;;;;5043238;28;20044;-58
2022/06/29 09:04:49;;;;;;;6.70;1.95;;;29.10;86.10;;;;;;5053807;28;20025;-59
2022/06/29 09:07:15;;;;;;;4.22;1.55;;;29.40;88.20;;;;;;5044695;28;20052;-59
2022/06/29 09:10:09;;;;;;;4.68;1.33;;;29.20;84.30;;;;;;5042618;28;20032;-59
2022/06/29 09:12:36;;;;;;;3.13;1.33;;;29.10;82.20;;;;;;5047017;28;20528;-58
2022/06/29 09:15:04;;;;;;;3.20;1.30;;;29.00;85.30;;;;;;5052309;28;20436;-59
2022/06/29 09:17:31;;;;;;;5.35;1.52;;;29.60;87.40;;;;;;5041536;28;20515;-59
2022/06/29 09:19:57;;;;;;;4.68;1.60;;;30.00;84.40;;;;;;5045628;28;20115;-59
2022/06/29 09:22:23;;;;;;;3.85;1.27;;;30.50;83.40;;;;;;5048751;28;20465;-59
2022/06/29 09:24:49;;;;;;;4.35;1.30;;;31.00;77.50;;;;;;5050175;28;20135;-56
2022/06/29 09:27:15;;;;;;;3.40;1.05;;;31.20;73.20;;;;;;5046920;28;20032;-59
2022/06/29 09:29:42;;;;;;;3.25;0.90;;;31.00;70.10;;;;;;5049922;28;20074;-59
2022/06/29 09:32:18;;;;;;;5.05;1.20;;;30.60;70.30;;;;;;5051049;28;20033;-59
2022/06/29 09:34:48;;;;;;;3.33;1.00;;;30.60;71.30;;;;;;5046478;28;20025;-59
2022/06/29 09:37:16;;;;;;;2.20;0.93;;;30.50;66.70;;;;;;5046241;28;20059;-59
2022/06/29 09:39:43;;;;;;;3.53;1.45;;;30.30;70.20;;;;;;5048323;28;20081;-58
2022/06/29 09:42:17;;;;;;;4.00;1.20;;;30.00;72.50;;;;;;5047482;28;20360;-59
2022/06/29 09:44:44;;;;;;;4.82;1.00;;;30.20;71.80;;;;;;5049742;28;20064;-59
2022/06/29 09:47:19;;;;;;;4.45;1.30;;;30.60;68.80;;;;;;5048514;28;20618;-59
2022/06/29 09:49:59;;;;;;;3.25;1.00;;;31.40;66.30;;;;;;5055398;28;20028;-58
2022/06/29 09:52:26;;;;;;;4.53;1.25;;;31.20;66.70;;;;;;5049120;28;20028;-59
2022/06/29 09:54:55;;;;;;;2.50;1.00;;;30.80;63.70;;;;;;5049163;28;20944;-59
2022/06/29 09:57:28;;;;;;;3.50;0.90;;;30.10;63.90;;;;;;5047553;28;20036;-58
2022/06/29 10:02:51;;;;;;;3.30;1.15;;;29.80;68.70;;;;;;5054316;28;20040;-58
2022/06/29 10:05:22;;;;;;;2.42;0.80;;;30.20;69.00;;;;;;5055468;28;20439;-58
2022/06/29 10:07:51;;;;;;;3.63;1.10;;;30.20;69.30;;;;;;5049670;28;20089;-58
2022/06/29 10:10:19;;;;;;;2.92;0.93;;;30.60;65.50;;;;;;5054605;28;20032;-58
2022/06/29 10:16:33;;;;;;;3.40;0.90;;;30.30;65.20;;;;;;5053828;28;20032;-59
2022/06/29 10:19:29;;;;;;;2.17;0.90;;;30.80;65.00;;;;;;5040764;28;20036;-59
2022/06/29 10:21:56;;;;;;;2.78;0.80;;;30.80;62.80;;;;;;5051439;28;20150;-60
2022/06/29 10:24:22;;;;;;;3.10;0.93;;;30.80;64.70;;;;;;5056718;28;20033;-60
2022/06/29 10:26:49;;;;;;;2.10;1.00;;;30.60;63.90;;;;;;5059551;28;20035;-59
2022/06/29 10:29:20;;;;;;;7.03;1.10;;;30.40;65.40;;;;;;5063365;28;20056;-58
2022/06/29 10:34:30;;;;;;;5.50;1.02;;;29.90;63.70;;;;;;5066777;28;20493;-59
2022/06/29 10:37:15;;;;;;;3.13;1.13;;;29.00;65.90;;;;;;5068122;28;20025;-59
2022/06/29 10:39:49;;;;;;;2.90;1.00;;;28.60;67.00;;;;;;5053192;28;20077;-59
2022/06/29 10:45:09;;;;;;;4.30;1.48;;;28.80;69.10;;;;;;5052724;28;20120;-59
2022/06/29 10:47:35;;;;;;;3.60;0.90;;;28.80;67.00;;;;;;5068400;28;20090;-59
2022/06/29 10:50:25;;;;;;;3.50;1.38;;;29.20;68.10;;;;;;5066367;28;20050;-59
2022/06/29 10:52:52;;;;;;;5.47;1.00;;;29.40;67.40;;;;;;5062097;28;20412;-59
2022/06/29 10:55:18;;;;;;;7.55;1.30;;;29.90;65.70;;;;;;5055287;28;20041;-60
2022/06/29 10:57:45;;;;;;;4.18;1.00;;;30.00;64.80;;;;;;5063040;28;20503;-59
2022/06/29 11:00:20;;;;;;;3.53;1.02;;;30.00;65.70;;;;;;5066697;28;20032;-59
2022/06/29 11:02:46;;;;;;;3.90;1.15;;;30.00;66.30;;;;;;5063969;28;20029;-59
2022/06/29 11:05:13;;;;;;;3.45;1.10;;;30.00;65.10;;;;;;5065853;28;20053;-59
2022/06/29 11:13:23;;;;;;;3.05;1.05;;;29.50;66.40;;;;;;5065904;28;20055;-59
2022/06/29 11:15:51;;;;;;;3.30;0.82;;;29.20;67.30;;;;;;5055629;28;20055;-58
2022/06/29 11:18:18;;;;;;;2.42;1.02;;;29.20;67.20;;;;;;5070188;28;20150;-58
2022/06/29 11:20:45;;;;;;;2.80;0.90;;;29.70;68.10;;;;;;5070573;28;20025;-60
2022/06/29 11:23:15;;;;;;;3.13;1.10;;;30.00;67.50;;;;;;5065019;28;20025;-59
2022/06/29 11:25:46;;;;;;;2.30;1.10;;;30.50;66.60;;;;;;5063808;28;20017;-58
2022/06/29 11:28:16;;;;;;;3.63;1.10;;;30.90;65.00;;;;;;5056268;28;20044;-60
2022/06/29 11:30:42;;;;;;;5.00;1.08;;;31.80;65.80;;;;;;5061920;28;20024;-60
2022/06/29 11:33:11;;;;;;;2.90;0.88;;;31.30;63.20;;;;;;5054947;28;20029;-60
2022/06/29 11:35:42;;;;;;;3.10;1.00;;;30.60;64.50;;;;;;5065745;28;20390;-59
2022/06/29 11:38:08;;;;;;;2.33;0.80;;;30.20;63.80;;;;;;5073134;28;20037;-60
2022/06/29 11:40:36;;;;;;;4.90;1.20;;;30.20;65.10;;;;;;5061234;28;20039;-59
2022/06/29 11:43:13;;;;;;;3.10;0.90;;;30.40;63.90;;;;;;5068240;28;20078;-60
2022/06/29 11:45:43;;;;;;;3.17;1.10;;;30.00;65.10;;;;;;5066263;28;20017;-57
2022/06/29 11:48:26;;;;;;;4.60;0.95;;;29.90;64.50;;;;;;5057823;28;20521;-57
2022/06/29 11:51:10;;;;;;;2.75;0.90;;;30.10;65.40;;;;;;5053084;28;20527;-59
2022/06/29 11:53:54;;;;;;;4.60;1.00;;;30.90;62.50;;;;;;5054630;28;20052;-60
2022/06/29 11:56:23;;;;;;;3.40;1.00;;;31.40;61.10;;;;;;5054925;28;20402;-60
2022/06/29 11:58:50;;;;;;;2.90;1.10;;;31.70;62.00;;;;;;5052124;28;20029;-59
2022/06/29 12:01:19;;;;;;;5.13;1.08;;;32.00;60.70;;;;;;5053332;28;20772;-59
2022/06/29 12:03:53;;;;;;;4.88;1.20;;;31.50;61.30;;;;;;5055915;28;20558;-59
2022/06/29 12:06:22;;;;;;;5.13;1.25;;;31.20;63.00;;;;;;5055422;28;20115;-59
2022/06/29 12:08:49;;;;;;;7.63;1.10;;;30.70;63.50;;;;;;5069454;28;21332;-60
2022/06/29 12:11:15;;;;;;;2.03;0.95;;;30.30;65.80;;;;;;5068097;28;20056;-59
2022/06/29 12:13:42;;;;;;;3.75;1.23;;;30.00;64.50;;;;;;5069246;28;20388;-59
2022/06/29 12:16:11;;;;;;;4.70;1.13;;;30.20;66.20;;;;;;5059716;28;20613;-59
2022/06/29 12:18:37;;;;;;;2.65;1.00;;;30.60;64.40;;;;;;5056206;28;20033;-59
2022/06/29 12:21:03;;;;;;;4.93;1.08;;;30.60;66.20;;;;;;5056861;28;20031;-59
2022/06/29 12:23:29;;;;;;;2.72;0.80;;;30.10;64.50;;;;;;5061281;28;20032;-59
2022/06/29 12:25:55;;;;;;;6.40;1.45;;;29.10;65.80;;;;;;5067940;28;20559;-59
2022/06/29 12:28:21;;;;;;;5.28;1.15;;;28.80;68.10;;;;;;5062393;28;20029;-59
2022/06/29 12:30:47;;;;;;;4.20;1.10;;;30.10;66.40;;;;;;5068627;28;20163;-59
2022/06/29 12:33:13;;;;;;;5.03;1.05;;;30.80;64.30;;;;;;5068625;28;20115;-59
2022/06/29 12:35:39;;;;;;;5.25;1.50;;;32.10;62.30;;;;;;5069487;28;20111;-61
2022/06/29 12:38:05;;;;;;;3.90;1.20;;;32.80;60.40;;;;;;5074967;28;20068;-60
2022/06/29 12:40:31;;;;;;;3.50;1.15;;;33.60;59.50;;;;;;5060708;28;20033;-61
2022/06/29 12:42:57;;;;;;;2.72;1.08;;;33.00;62.60;;;;;;5068440;28;20060;-60
2022/06/29 12:45:24;;;;;;;2.95;1.08;;;33.00;62.20;;;;;;5052016;28;20032;-60
2022/06/29 12:47:50;;;;;;;3.90;1.20;;;33.10;62.40;;;;;;5062430;28;20029;-60
2022/06/29 12:50:17;;;;;;;5.10;1.10;;;32.70;61.50;;;;;;5061224;28;20028;-59
2022/06/29 12:52:46;;;;;;;3.53;1.10;;;31.90;62.70;;;;;;5061128;28;20040;-59
2022/06/29 12:55:16;;;;;;;2.38;1.00;;;30.80;61.90;;;;;;5054520;28;20083;-59
2022/06/29 12:57:42;;;;;;;2.88;1.20;;;30.40;65.80;;;;;;5062796;28;20437;-60
2022/06/29 13:00:09;;;;;;;3.40;1.10;;;32.00;63.80;;;;;;5069722;28;20024;-59
2022/06/29 13:02:35;;;;;;;6.85;1.40;;;31.90;61.20;;;;;;5067636;28;20025;-59
2022/06/29 13:05:01;;;;;;;2.92;0.85;;;32.10;61.40;;;;;;5068715;28;20035;-59